Vineland, New Jersey
Current Conditions -  °F | °C
As of 8:02 AM on Thursday 27 Nov 2014 (Local Time) from KMIV Reporting Station
Overcast Overcast  
Wind Chill: 29°   Ceiling: 8000
Heat Index: 33°   Visibility: 10mi
Dew Point: 32°   Wind: 5mph
Humidity: 96%   Direction: 270°W
Pressure: 30.02"   Gusts: NA
Location:  39.49°N, 75.04°W
Report Text: KMIV 271302Z AUTO 27004KT 10SM SCT022 OVC080 01/00 A3002 RMK AO2 T00060000
Loading
Personal Weather Stations






























Interactive Weather Map New forecast layout! Learn more

10-Day Weather Forecast

Advertisements
Track Severe Weather on mobile